Time;durP1;ratioP1;P1;durP2;ratioP2;P2;SDS_P1;SDS_P2;PMS_P1;PMS_P2;Temp;Humidity;BMP_temperature;BMP_pressure;BME280_temperature;BME280_humidity;BME280_pressure;Samples;Min_cycle;Max_cycle;Signal;HPM_P1;HPM_P2
2021/06/09 02:46:43;;;;;;;8.18;7.38;;;17.10;99.90;;;;;;5738985;23;94082;-84
2021/06/09 02:49:14;;;;;;;9.20;7.97;;;17.00;99.90;;;;;;4930776;28;92570;-84
2021/06/09 02:51:42;;;;;;;;;;;17.00;99.90;;;;;;4930645;28;91210;-85
2021/06/09 02:54:21;;;;;;;9.57;8.68;;;16.30;99.90;;;;;;4930631;28;92960;-85
2021/06/09 02:57:19;;;;;;;10.60;7.85;;;16.80;99.90;;;;;;4928443;28;91994;-85
2021/06/09 03:00:06;;;;;;;10.30;9.38;;;16.50;99.90;;;;;;4928605;28;92110;-84
2021/06/09 03:02:38;;;;;;;9.38;8.18;;;16.60;99.90;;;;;;4929522;28;91997;-85
2021/06/09 03:05:16;;;;;;;9.48;8.57;;;16.60;99.90;;;;;;4932974;28;92773;-85
2021/06/09 03:08:05;;;;;;;10.48;8.90;;;16.70;99.90;;;;;;4929735;28;92349;-84
2021/06/09 03:10:40;;;;;;;9.65;8.48;;;16.90;99.90;;;;;;4929696;28;91910;-84
2021/06/09 03:13:54;;;;;;;9.95;8.95;;;16.40;99.90;;;;;;4926464;28;90650;-84
2021/06/09 03:16:51;;;;;;;8.80;7.90;;;16.60;99.90;;;;;;4926405;28;92087;-83
2021/06/09 03:19:38;;;;;;;8.27;7.47;;;16.70;99.90;;;;;;4931368;28;92894;-85
2021/06/09 03:22:23;;;;;;;9.43;8.43;;;16.70;99.90;;;;;;4931125;28;92612;-85
2021/06/09 03:24:54;;;;;;;9.63;7.75;;;16.70;99.90;;;;;;4934676;28;91671;-85
2021/06/09 03:27:44;;;;;;;9.55;7.90;;;16.80;99.90;;;;;;4930646;28;92441;-84
2021/06/09 03:30:12;;;;;;;8.17;7.30;;;16.80;99.90;;;;;;4924962;28;92171;-85
2021/06/09 03:32:46;;;;;;;9.45;8.52;;;16.60;99.90;;;;;;4930073;28;92091;-85
2021/06/09 03:35:39;;;;;;;10.02;9.00;;;16.50;99.90;;;;;;4931194;28;91912;-84
2021/06/09 03:38:10;;;;;;;9.90;9.00;;;16.50;99.90;;;;;;4934027;28;92330;-84
2021/06/09 03:40:38;;;;;;;9.70;8.80;;;17.40;99.90;;;;;;4931114;28;92032;-83
2021/06/09 03:43:08;;;;;;;11.35;9.23;;;16.90;99.90;;;;;;4932263;28;91961;-84
2021/06/09 03:45:40;;;;;;;9.55;8.63;;;16.90;99.90;;;;;;4938567;28;91373;-87
2021/06/09 03:48:08;;;;;;;9.32;8.43;;;17.00;99.90;;;;;;4918847;28;92959;-85
2021/06/09 03:50:34;;;;;;;10.15;8.38;;;17.00;99.90;;;;;;4914625;28;92898;-87
2021/06/09 03:53:03;;;;;;;10.63;9.63;;;16.60;99.90;;;;;;4909181;28;92191;-83
2021/06/09 03:55:32;;;;;;;9.13;7.65;;;17.00;99.90;;;;;;4895831;28;91889;-84
2021/06/09 03:57:59;;;;;;;9.38;7.88;;;17.00;99.90;;;;;;4893516;28;91787;-84
2021/06/09 04:00:26;;;;;;;12.13;9.10;;;17.00;99.90;;;;;;4898770;28;93278;-83
2021/06/09 04:03:08;;;;;;;11.25;10.10;;;16.60;99.90;;;;;;4909941;28;91960;-85
2021/06/09 04:05:37;;;;;;;10.25;9.25;;;17.20;99.90;;;;;;4909418;28;91429;-83
2021/06/09 04:08:05;;;;;;;10.52;9.52;;;16.60;99.90;;;;;;4912617;28;92230;-82
2021/06/09 04:10:32;;;;;;;10.23;9.02;;;17.00;99.90;;;;;;4909729;28;92947;-86
2021/06/09 04:12:58;;;;;;;9.18;8.25;;;17.10;99.90;;;;;;4904180;28;93059;-83
2021/06/09 04:15:26;;;;;;;10.90;9.80;;;17.10;99.90;;;;;;4908909;28;92140;-84
2021/06/09 04:17:53;;;;;;;10.90;9.65;;;17.20;99.90;;;;;;4906736;28;93664;-83
2021/06/09 04:20:25;;;;;;;9.90;8.95;;;17.20;99.90;;;;;;4908818;28;93365;-82
2021/06/09 04:22:52;;;;;;;9.43;7.68;;;17.10;99.90;;;;;;4907982;28;91672;-81
2021/06/09 04:25:19;;;;;;;8.90;8.00;;;17.10;99.90;;;;;;4907512;28;91859;-83
2021/06/09 04:27:46;;;;;;;10.50;9.40;;;17.00;99.90;;;;;;4916265;28;93189;-84
2021/06/09 04:30:13;;;;;;;10.57;8.85;;;17.10;99.90;;;;;;4913247;28;91236;-82
2021/06/09 04:32:53;;;;;;;9.63;8.63;;;17.70;99.90;;;;;;4911290;28;91848;-84
2021/06/09 04:35:24;;;;;;;10.68;8.32;;;17.30;99.90;;;;;;4908845;28;91919;-83
2021/06/09 04:37:51;;;;;;;9.52;8.40;;;17.40;99.90;;;;;;4921571;28;92837;-83
2021/06/09 04:40:20;;;;;;;10.02;8.95;;;17.20;99.90;;;;;;4908205;28;95856;-83
2021/06/09 04:42:47;;;;;;;10.55;9.45;;;17.50;99.90;;;;;;4907908;28;91754;-83
2021/06/09 04:45:14;;;;;;;10.90;8.98;;;17.60;99.90;;;;;;4908175;28;91718;-83
2021/06/09 04:47:40;;;;;;;10.75;9.68;;;17.70;99.90;;;;;;4906378;28;92242;-84
2021/06/09 04:50:07;;;;;;;11.38;10.18;;;17.40;99.90;;;;;;4908942;28;92122;-85
2021/06/09 04:52:33;;;;;;;11.75;9.60;;;17.70;99.90;;;;;;4909124;28;91895;-83
2021/06/09 04:58:27;;;;;;;9.30;7.72;;;17.80;99.90;;;;;;4906878;28;92105;-83
2021/06/09 05:00:53;;;;;;;9.65;8.75;;;;;;;;;;4907986;28;91859;-82
2021/06/09 05:03:19;;;;;;;10.13;9.13;;;18.00;99.90;;;;;;4918829;28;92813;-82
2021/06/09 05:05:49;;;;;;;9.60;8.15;;;;;;;;;;4930021;28;91948;-84
2021/06/09 05:08:15;;;;;;;10.23;9.25;;;;;;;;;;4929509;28;93196;-84
2021/06/09 05:10:42;;;;;;;9.82;8.82;;;17.70;99.90;;;;;;4929676;28;92089;-82
2021/06/09 05:13:16;;;;;;;10.77;9.73;;;16.90;99.90;;;;;;4930756;28;91366;-84
2021/06/09 05:15:47;;;;;;;9.75;8.82;;;17.30;99.90;;;;;;4939494;28;91430;-86
2021/06/09 05:18:24;;;;;;;8.77;7.85;;;17.40;99.90;;;;;;4920124;28;91865;-86
2021/06/09 05:20:51;;;;;;;9.93;8.93;;;17.00;99.90;;;;;;4915098;28;92218;-85
2021/06/09 05:23:31;;;;;;;10.45;9.02;;;17.60;99.90;;;;;;4913235;28;91504;-86
2021/06/09 05:25:59;;;;;;;11.77;10.50;;;17.60;99.90;;;;;;4914021;28;91788;-85
2021/06/09 05:28:27;;;;;;;9.23;8.15;;;17.60;99.90;;;;;;4910837;28;92713;-83
2021/06/09 05:30:55;;;;;;;12.35;8.95;;;17.70;99.90;;;;;;4910639;28;93225;-83
2021/06/09 05:33:23;;;;;;;9.27;8.25;;;17.80;99.90;;;;;;4913051;28;91413;-84
2021/06/09 05:36:01;;;;;;;11.43;9.70;;;17.90;99.90;;;;;;4904499;28;98597;-83
2021/06/09 05:38:28;;;;;;;10.88;9.30;;;17.90;99.90;;;;;;4893036;28;92798;-84
2021/06/09 05:40:58;;;;;;;10.95;8.10;;;17.90;99.90;;;;;;4896964;28;92530;-84
2021/06/09 05:43:26;;;;;;;10.63;9.52;;;18.00;99.90;;;;;;4918580;28;91843;-85
2021/06/09 05:45:53;;;;;;;11.52;10.20;;;18.70;99.90;;;;;;4918621;28;91138;-85
2021/06/09 05:48:19;;;;;;;15.77;11.43;;;18.20;99.90;;;;;;4914289;28;92389;-86
2021/06/09 05:50:58;;;;;;;11.75;10.02;;;18.50;99.90;;;;;;4913392;28;92121;-86
2021/06/09 05:53:28;;;;;;;13.88;10.88;;;18.40;99.90;;;;;;4913704;28;93022;-84
2021/06/09 05:55:55;;;;;;;12.57;11.27;;;17.90;99.90;;;;;;4913607;28;92173;-84
2021/06/09 05:58:22;;;;;;;12.60;11.30;;;18.50;99.90;;;;;;4913510;28;92826;-82
2021/06/09 06:00:57;;;;;;;11.98;10.77;;;18.00;99.90;;;;;;4913826;28;91938;-85
2021/06/09 06:03:25;;;;;;;15.18;11.93;;;18.20;99.90;;;;;;4913908;28;91607;-84
2021/06/09 06:06:04;;;;;;;14.40;12.63;;;19.20;99.90;;;;;;4913768;28;92025;-84
2021/06/09 06:08:34;;;;;;;15.07;12.40;;;19.00;99.90;;;;;;4914192;28;92250;-85
2021/06/09 06:11:09;;;;;;;15.77;13.23;;;18.80;99.90;;;;;;4914814;28;91364;-84
2021/06/09 06:13:35;;;;;;;15.05;12.05;;;19.00;99.90;;;;;;4909691;28;91865;-83
2021/06/09 06:16:02;;;;;;;13.50;11.90;;;19.40;99.90;;;;;;4913515;28;92030;-85
2021/06/09 06:18:37;;;;;;;14.23;11.80;;;19.30;99.90;;;;;;4912951;28;93485;-84
2021/06/09 06:21:09;;;;;;;15.82;12.85;;;19.50;99.90;;;;;;4910566;28;94019;-85
2021/06/09 06:23:36;;;;;;;15.25;13.13;;;19.70;99.90;;;;;;4913216;28;91831;-84
2021/06/09 06:26:02;;;;;;;15.43;12.73;;;20.60;99.90;;;;;;4908647;28;92175;-83
2021/06/09 06:28:28;;;;;;;15.07;12.13;;;20.00;99.90;;;;;;4913532;28;92740;-84
2021/06/09 06:30:54;;;;;;;13.48;11.43;;;20.20;99.90;;;;;;4912058;28;92918;-82
2021/06/09 06:33:27;;;;;;;14.40;12.68;;;20.70;99.90;;;;;;4913361;28;92017;-83
2021/06/09 06:35:57;;;;;;;15.18;11.93;;;20.00;99.90;;;;;;4912665;28;91960;-85
2021/06/09 06:38:23;;;;;;;12.27;10.27;;;20.30;99.90;;;;;;4910375;28;92085;-84
2021/06/09 06:40:50;;;;;;;15.32;11.35;;;20.50;99.90;;;;;;4913642;28;92006;-83
2021/06/09 06:43:16;;;;;;;12.93;10.50;;;20.80;99.90;;;;;;4913511;28;92962;-82
2021/06/09 06:45:42;;;;;;;11.82;9.77;;;21.10;99.90;;;;;;4913586;28;91859;-84
2021/06/09 06:48:08;;;;;;;15.07;12.85;;;21.80;99.90;;;;;;4906893;28;91654;-84
2021/06/09 06:50:37;;;;;;;13.90;11.85;;;21.20;99.90;;;;;;4896949;28;95167;-84
2021/06/09 06:53:06;;;;;;;12.38;11.18;;;21.40;99.90;;;;;;4911548;28;91978;-84
2021/06/09 06:55:32;;;;;;;14.68;11.50;;;;;;;;;;4910271;28;91907;-84
2021/06/09 06:57:58;;;;;;;10.82;9.68;;;;;;;;;;4908046;28;92037;-84
2021/06/09 07:00:24;;;;;;;13.40;11.25;;;21.30;99.90;;;;;;4911986;28;93074;-85
2021/06/09 07:02:54;;;;;;;11.18;10.07;;;20.60;99.90;;;;;;4910589;28;92120;-85
2021/06/09 07:05:22;;;;;;;12.40;10.63;;;21.40;99.90;;;;;;4910949;28;91271;-84
2021/06/09 07:07:49;;;;;;;9.73;8.73;;;21.40;99.90;;;;;;4908236;28;93201;-84
2021/06/09 07:10:17;;;;;;;11.18;10.05;;;21.50;99.90;;;;;;4908944;28;93682;-84
2021/06/09 07:12:44;;;;;;;12.23;10.70;;;22.40;99.90;;;;;;4909986;28;92051;-84
2021/06/09 07:15:12;;;;;;;11.38;9.80;;;22.20;99.90;;;;;;4910848;28;92105;-85
2021/06/09 07:17:41;;;;;;;11.65;10.45;;;22.40;99.90;;;;;;4910880;28;92357;-84
2021/06/09 07:20:09;;;;;;;13.52;11.23;;;22.50;99.90;;;;;;4908949;28;92151;-85
2021/06/09 07:22:39;;;;;;;14.80;12.30;;;22.10;99.90;;;;;;4909683;28;91693;-84
2021/06/09 07:25:07;;;;;;;13.95;12.45;;;22.10;99.90;;;;;;4910076;28;91052;-85
2021/06/09 07:27:36;;;;;;;15.55;12.38;;;22.40;99.90;;;;;;4906632;28;94146;-84
2021/06/09 07:30:07;;;;;;;13.77;12.38;;;22.40;99.90;;;;;;4910422;28;91917;-85
2021/06/09 07:32:36;;;;;;;15.38;13.30;;;22.50;99.90;;;;;;4908824;28;93063;-85
2021/06/09 07:35:03;;;;;;;14.07;12.52;;;22.20;99.90;;;;;;4912275;28;91661;-83
2021/06/09 07:37:33;;;;;;;15.20;12.55;;;22.30;99.90;;;;;;4910825;28;92379;-87
2021/06/09 07:40:01;;;;;;;13.50;12.20;;;22.70;99.90;;;;;;4911206;28;92139;-85
2021/06/09 07:42:30;;;;;;;15.75;12.73;;;22.90;99.90;;;;;;4916240;28;91990;-86
2021/06/09 07:45:04;;;;;;;15.18;11.18;;;22.80;99.90;;;;;;4911533;28;92165;-85
2021/06/09 07:47:32;;;;;;;13.98;12.18;;;23.30;99.90;;;;;;4909568;28;92416;-86
2021/06/09 07:49:59;;;;;;;13.70;12.27;;;23.50;99.90;;;;;;4913489;28;92036;-84
2021/06/09 07:52:28;;;;;;;14.18;12.68;;;23.50;99.90;;;;;;4910305;28;92043;-85
2021/06/09 07:54:56;;;;;;;13.50;12.07;;;23.20;99.90;;;;;;4910781;28;91855;-85
2021/06/09 07:57:25;;;;;;;15.13;12.57;;;24.10;99.90;;;;;;4908512;28;94279;-86
2021/06/09 07:59:52;;;;;;;15.13;13.35;;;23.90;98.10;;;;;;4910336;28;92892;-85
2021/06/09 08:02:20;;;;;;;13.50;11.85;;;24.40;99.10;;;;;;4908378;28;92081;-85
2021/06/09 08:04:47;;;;;;;13.43;10.95;;;24.40;99.30;;;;;;4910229;28;91963;-86
2021/06/09 08:07:13;;;;;;;13.10;9.93;;;24.60;97.90;;;;;;4909834;28;92842;-83
2021/06/09 08:09:39;;;;;;;14.27;12.15;;;24.60;96.70;;;;;;4912520;28;92071;-86
2021/06/09 08:12:07;;;;;;;12.60;10.18;;;24.70;96.90;;;;;;4911857;28;91788;-83
2021/06/09 08:14:33;;;;;;;13.65;12.25;;;24.60;96.70;;;;;;4911428;28;91070;-85
2021/06/09 08:17:01;;;;;;;14.35;12.85;;;24.60;96.90;;;;;;4912222;28;91972;-85
2021/06/09 08:19:27;;;;;;;15.98;12.00;;;24.60;97.00;;;;;;4912578;28;92491;-86
2021/06/09 08:21:53;;;;;;;15.07;12.75;;;24.50;96.90;;;;;;4911685;28;92982;-85
2021/06/09 08:24:19;;;;;;;12.60;11.30;;;24.40;96.60;;;;;;4911936;28;92177;-85
2021/06/09 08:26:45;;;;;;;13.40;12.00;;;24.30;96.50;;;;;;4913176;28;91873;-85
2021/06/09 08:29:12;;;;;;;12.20;10.98;;;24.20;96.90;;;;;;4913452;28;91996;-85
2021/06/09 08:31:38;;;;;;;12.63;11.32;;;24.20;96.70;;;;;;4913074;28;92128;-86
2021/06/09 08:34:06;;;;;;;13.52;12.13;;;24.30;96.90;;;;;;4911368;28;92151;-85
2021/06/09 08:36:32;;;;;;;13.75;12.13;;;23.70;96.10;;;;;;4911797;28;92320;-85
2021/06/09 08:38:59;;;;;;;13.90;12.35;;;24.30;95.70;;;;;;4910849;28;92224;-85
2021/06/09 08:41:32;;;;;;;14.20;12.40;;;24.10;96.20;;;;;;4910152;28;91894;-85
2021/06/09 08:43:59;;;;;;;14.00;12.32;;;24.00;95.60;;;;;;4909076;28;92006;-85
2021/06/09 08:46:26;;;;;;;12.95;11.65;;;24.30;95.90;;;;;;4907883;28;94183;-86
2021/06/09 08:48:54;;;;;;;15.07;12.18;;;24.60;96.20;;;;;;4909546;28;93939;-85
2021/06/09 08:51:21;;;;;;;14.10;12.63;;;24.90;95.40;;;;;;4908804;28;91993;-86
2021/06/09 08:53:50;;;;;;;13.13;11.60;;;25.30;95.00;;;;;;4889570;28;91636;-85
2021/06/09 08:56:17;;;;;;;13.57;11.68;;;25.60;93.00;;;;;;4908440;28;92449;-86
2021/06/09 08:58:44;;;;;;;14.07;12.65;;;25.90;92.60;;;;;;4912740;28;92069;-86
2021/06/09 09:01:12;;;;;;;13.30;11.98;;;26.20;92.70;;;;;;4915494;28;91890;-84
2021/06/09 09:03:41;;;;;;;13.27;11.88;;;26.60;90.50;;;;;;4906779;28;91180;-86
2021/06/09 09:06:07;;;;;;;12.48;11.27;;;26.20;90.60;;;;;;4908291;28;92039;-87
2021/06/09 09:08:33;;;;;;;12.48;11.27;;;26.70;91.00;;;;;;4908493;28;91949;-86
2021/06/09 09:10:59;;;;;;;15.40;11.70;;;27.10;86.40;;;;;;4904713;28;92945;-85
2021/06/09 09:13:25;;;;;;;11.77;10.68;;;27.80;85.70;;;;;;4906770;28;92041;-86
2021/06/09 09:15:52;;;;;;;12.07;10.88;;;27.50;84.00;;;;;;4908660;28;92024;-85
2021/06/09 09:18:19;;;;;;;12.57;10.77;;;27.80;82.20;;;;;;4909918;28;92084;-85
2021/06/09 09:20:47;;;;;;;13.75;12.45;;;27.90;80.40;;;;;;4908672;28;91983;-85
2021/06/09 09:23:47;;;;;;;13.73;12.32;;;27.70;80.80;;;;;;4907055;28;92200;-86
2021/06/09 09:26:31;;;;;;;14.07;12.10;;;27.50;81.30;;;;;;4907272;28;91905;-86
2021/06/09 09:29:10;;;;;;;13.25;11.40;;;27.20;82.80;;;;;;4907570;28;92114;-85
2021/06/09 09:31:58;;;;;;;12.00;10.80;;;27.30;82.00;;;;;;4895530;28;91844;-85
2021/06/09 09:34:35;;;;;;;12.40;11.20;;;27.50;82.60;;;;;;4910250;28;92347;-84
2021/06/09 09:37:06;;;;;;;12.55;10.63;;;27.90;81.80;;;;;;4915254;28;93297;-84
2021/06/09 09:39:35;;;;;;;13.57;12.18;;;27.60;81.90;;;;;;4900359;28;93962;-84
2021/06/09 09:42:18;;;;;;;12.90;11.60;;;28.00;78.70;;;;;;4907793;28;91985;-86
2021/06/09 09:44:45;;;;;;;12.75;11.45;;;28.00;78.40;;;;;;4909327;28;92072;-85
2021/06/09 09:47:19;;;;;;;14.07;11.93;;;28.10;78.90;;;;;;4908004;28;92886;-87
2021/06/09 09:49:45;;;;;;;14.90;13.40;;;28.10;78.30;;;;;;4907618;28;92447;-85
2021/06/09 09:52:11;;;;;;;16.73;12.52;;;28.30;78.30;;;;;;4905320;28;91766;-85
2021/06/09 09:54:39;;;;;;;13.68;12.23;;;28.30;78.60;;;;;;4907370;28;91259;-85
2021/06/09 09:57:07;;;;;;;12.60;11.40;;;28.40;76.60;;;;;;4907324;28;92823;-86
2021/06/09 09:59:34;;;;;;;12.70;11.18;;;28.40;74.90;;;;;;4905232;28;92097;-85
2021/06/09 10:02:04;;;;;;;13.07;11.85;;;28.40;75.00;;;;;;4905194;28;93071;-86
2021/06/09 10:04:34;;;;;;;15.57;12.68;;;28.60;73.30;;;;;;4905430;28;92257;-85
2021/06/09 10:07:02;;;;;;;18.25;13.82;;;28.70;73.80;;;;;;4905565;28;93154;-85
2021/06/09 10:09:35;;;;;;;18.23;13.05;;;28.80;72.70;;;;;;4896591;28;91979;-85
2021/06/09 10:12:12;;;;;;;17.83;14.32;;;28.70;72.30;;;;;;4894985;28;92065;-86
2021/06/09 10:14:46;;;;;;;17.70;13.43;;;29.30;70.80;;;;;;4919881;28;91548;-86
2021/06/09 10:17:24;;;;;;;20.77;14.43;;;29.10;68.90;;;;;;4904935;28;93336;-86
2021/06/09 10:19:58;;;;;;;20.70;14.45;;;29.50;69.90;;;;;;4905189;28;92088;-85
2021/06/09 10:22:35;;;;;;;12.43;11.13;;;30.30;68.00;;;;;;4904865;28;92279;-86
2021/06/09 10:25:05;;;;;;;13.85;10.70;;;31.00;65.00;;;;;;4911895;28;91206;-84
2021/06/09 10:27:34;;;;;;;;;;;31.80;64.90;;;;;;4913398;28;93251;-83
2021/06/09 10:30:00;;;;;;;11.82;10.57;;;32.10;62.10;;;;;;4922512;28;92771;-82
2021/06/09 10:32:27;;;;;;;12.63;10.32;;;32.40;62.10;;;;;;4912018;28;91670;-85
2021/06/09 10:34:53;;;;;;;13.48;11.75;;;32.60;60.60;;;;;;4907532;28;92105;-84
2021/06/09 10:37:18;;;;;;;15.18;10.40;;;33.10;59.80;;;;;;4904967;28;92278;-85
2021/06/09 10:39:45;;;;;;;10.68;9.68;;;33.70;56.60;;;;;;4903661;28;93269;-85
2021/06/09 10:42:13;;;;;;;10.77;9.75;;;34.00;54.70;;;;;;4905892;28;91998;-84
2021/06/09 10:44:44;;;;;;;10.90;9.90;;;35.50;52.90;;;;;;4908675;28;91252;-83
2021/06/09 10:47:23;;;;;;;11.82;10.80;;;37.10;51.60;;;;;;4907209;28;93255;-86
2021/06/09 10:49:49;;;;;;;9.00;8.30;;;38.60;48.80;;;;;;4902012;28;92306;-84
2021/06/09 10:52:15;;;;;;;9.00;8.35;;;39.70;44.40;;;;;;4906989;28;92879;-85
2021/06/09 10:54:41;;;;;;;10.02;9.18;;;41.00;41.80;;;;;;4908138;28;92134;-85
2021/06/09 10:57:09;;;;;;;10.05;9.25;;;41.70;41.10;;;;;;4905400;28;92795;-84
2021/06/09 10:59:35;;;;;;;11.02;10.27;;;41.50;39.80;;;;;;4906322;28;91550;-85
2021/06/09 11:02:05;;;;;;;12.00;11.00;;;40.70;39.90;;;;;;4903790;28;92078;-85
2021/06/09 11:04:43;;;;;;;11.52;10.70;;;41.00;40.30;;;;;;4902496;28;92073;-85
2021/06/09 11:07:30;;;;;;;11.55;10.68;;;42.00;39.40;;;;;;4904747;28;92399;-85
2021/06/09 11:10:05;;;;;;;10.60;9.80;;;43.20;36.60;;;;;;4901538;28;91970;-85
2021/06/09 11:12:37;;;;;;;12.30;11.43;;;43.70;37.20;;;;;;4904171;28;92600;-84
2021/06/09 11:15:08;;;;;;;12.50;11.40;;;44.00;36.90;;;;;;4902763;28;91762;-85
2021/06/09 11:17:54;;;;;;;12.30;11.30;;;44.50;35.70;;;;;;4902012;28;93622;-84
2021/06/09 11:20:31;;;;;;;12.43;11.38;;;45.10;35.10;;;;;;4901802;28;93852;-85
2021/06/09 11:23:03;;;;;;;12.15;11.27;;;45.30;35.30;;;;;;4903042;28;91656;-85
2021/06/09 11:25:33;;;;;;;12.20;11.48;;;45.10;34.30;;;;;;4902425;28;92398;-85
2021/06/09 11:28:04;;;;;;;12.57;11.68;;;45.20;34.70;;;;;;4901503;28;93257;-85
2021/06/09 11:30:29;;;;;;;10.95;10.10;;;45.60;34.80;;;;;;4902643;28;91938;-85
2021/06/09 11:33:05;;;;;;;12.07;11.27;;;45.80;34.30;;;;;;4902469;28;92123;-84
2021/06/09 11:35:45;;;;;;;11.70;10.93;;;46.00;33.30;;;;;;4900078;28;91538;-84
2021/06/09 11:38:14;;;;;;;12.60;11.70;;;45.20;33.50;;;;;;4902563;28;92600;-84
2021/06/09 11:40:57;;;;;;;11.65;10.82;;;45.10;34.10;;;;;;4901777;28;92848;-84
2021/06/09 11:43:25;;;;;;;11.73;10.77;;;45.30;33.80;;;;;;4915498;28;92980;-84
2021/06/09 11:46:00;;;;;;;11.37;10.67;;;45.60;34.00;;;;;;4902951;28;91915;-84
2021/06/09 11:48:27;;;;;;;12.18;11.10;;;46.10;33.00;;;;;;4901511;28;92248;-84
2021/06/09 11:51:21;;;;;;;13.32;12.30;;;46.10;32.90;;;;;;4902286;28;92084;-84
2021/06/09 11:53:49;;;;;;;11.18;10.43;;;46.30;32.50;;;;;;4902855;28;91754;-84
2021/06/09 11:56:17;;;;;;;12.00;11.20;;;46.50;32.30;;;;;;4902962;28;92272;-84
2021/06/09 11:58:45;;;;;;;11.75;10.98;;;46.30;32.20;;;;;;4903554;28;92509;-83
2021/06/09 12:01:13;;;;;;;12.65;11.75;;;45.50;32.50;;;;;;4904921;28;91445;-84
2021/06/09 12:03:41;;;;;;;11.40;10.57;;;45.70;32.10;;;;;;4902253;28;91961;-84
2021/06/09 12:06:16;;;;;;;11.52;10.73;;;45.80;33.10;;;;;;4902268;28;92256;-85
2021/06/09 12:08:44;;;;;;;11.75;11.05;;;45.80;31.80;;;;;;4894533;28;96882;-85
2021/06/09 12:11:10;;;;;;;11.98;11.18;;;45.70;32.30;;;;;;4902136;28;93008;-85
2021/06/09 12:13:35;;;;;;;11.45;10.65;;;45.30;31.80;;;;;;4901751;28;92021;-85
2021/06/09 12:16:07;;;;;;;11.05;10.10;;;44.60;33.10;;;;;;4902565;28;91674;-84
2021/06/09 12:18:33;;;;;;;11.68;10.88;;;44.30;33.60;;;;;;4894094;28;92463;-86
2021/06/09 12:21:05;;;;;;;11.07;10.27;;;43.80;33.40;;;;;;4911459;28;91907;-85
2021/06/09 12:23:31;;;;;;;11.32;10.45;;;43.80;33.80;;;;;;4914310;28;91584;-86
2021/06/09 12:25:57;;;;;;;11.93;11.13;;;43.80;34.10;;;;;;4913800;28;90589;-86
2021/06/09 12:28:22;;;;;;;10.82;10.10;;;44.10;34.20;;;;;;4915460;28;92565;-86
2021/06/09 12:30:57;;;;;;;10.95;10.18;;;44.20;33.60;;;;;;4916880;28;92288;-86
2021/06/09 12:33:36;;;;;;;11.32;10.48;;;44.50;33.90;;;;;;4911520;28;92953;-85
2021/06/09 12:36:07;;;;;;;10.98;10.18;;;44.60;33.00;;;;;;4912814;28;91718;-86
2021/06/09 12:38:32;;;;;;;9.90;9.30;;;44.30;33.40;;;;;;4911795;28;92565;-85
2021/06/09 12:40:58;;;;;;;10.40;9.80;;;43.90;33.70;;;;;;4913144;28;92267;-86
2021/06/09 12:43:24;;;;;;;10.98;10.27;;;43.80;33.80;;;;;;4916294;28;91667;-86
2021/06/09 12:45:51;;;;;;;10.77;10.07;;;43.50;34.50;;;;;;4913377;28;92034;-86
2021/06/09 12:48:19;;;;;;;9.50;8.90;;;43.10;35.00;;;;;;4912543;28;93576;-86
2021/06/09 12:50:57;;;;;;;11.10;10.20;;;43.20;34.20;;;;;;4915330;28;92025;-85
2021/06/09 12:53:28;;;;;;;10.55;9.82;;;43.20;34.30;;;;;;4913951;28;92075;-86
2021/06/09 12:56:06;;;;;;;10.40;9.65;;;42.90;33.90;;;;;;4913778;28;91631;-85
2021/06/09 12:58:32;;;;;;;10.07;9.48;;;42.40;34.80;;;;;;4911950;28;93648;-85
2021/06/09 13:01:00;;;;;;;10.82;10.10;;;42.40;35.70;;;;;;4894340;28;94436;-85
2021/06/09 13:03:34;;;;;;;8.23;7.72;;;42.10;34.40;;;;;;4911682;28;91986;-86
2021/06/09 13:06:05;;;;;;;10.80;10.10;;;42.20;35.40;;;;;;4911563;28;91920;-85
2021/06/09 13:08:40;;;;;;;9.63;9.02;;;41.80;34.60;;;;;;4909862;28;92096;-85
2021/06/09 13:11:22;;;;;;;10.52;9.93;;;41.80;34.50;;;;;;4910948;28;91953;-85
2021/06/09 13:13:51;;;;;;;9.50;8.80;;;41.30;35.20;;;;;;4911856;28;91719;-86
2021/06/09 13:16:32;;;;;;;10.93;10.13;;;41.00;35.10;;;;;;4909503;28;91447;-85
2021/06/09 13:19:09;;;;;;;9.63;9.02;;;40.60;36.30;;;;;;4908716;28;92062;-85
2021/06/09 13:21:37;;;;;;;10.27;9.68;;;40.50;35.50;;;;;;4909708;28;92293;-85
2021/06/09 13:24:06;;;;;;;10.27;9.43;;;40.30;36.70;;;;;;4910275;28;92941;-86
2021/06/09 13:26:34;;;;;;;10.20;9.25;;;40.20;36.00;;;;;;4910258;28;91279;-85
2021/06/09 13:29:17;;;;;;;9.27;8.68;;;40.20;35.50;;;;;;4911120;28;92693;-85
2021/06/09 13:31:43;;;;;;;10.32;9.50;;;39.90;36.10;;;;;;4908591;28;91918;-85
2021/06/09 13:34:11;;;;;;;9.15;8.55;;;39.40;36.80;;;;;;4909561;28;91843;-85
2021/06/09 13:36:37;;;;;;;9.40;8.80;;;38.90;36.80;;;;;;4910978;28;92174;-85
2021/06/09 13:39:11;;;;;;;10.25;9.63;;;38.80;37.50;;;;;;4908771;28;92343;-84
2021/06/09 13:41:39;;;;;;;9.88;9.13;;;38.70;38.30;;;;;;4906682;28;92374;-84
2021/06/09 13:44:05;;;;;;;9.60;8.98;;;38.80;37.20;;;;;;4904862;28;91957;-84
2021/06/09 13:46:49;;;;;;;9.90;9.30;;;38.70;37.50;;;;;;4905445;28;91944;-84
2021/06/09 13:49:29;;;;;;;9.82;9.15;;;38.40;38.00;;;;;;4895527;28;93450;-84
2021/06/09 13:51:56;;;;;;;10.38;9.63;;;38.00;38.40;;;;;;4907045;28;92927;-84
2021/06/09 13:54:36;;;;;;;9.70;9.00;;;37.70;39.00;;;;;;4907518;28;92473;-84
2021/06/09 13:57:19;;;;;;;9.80;9.15;;;37.40;38.60;;;;;;4906847;28;92274;-85
2021/06/09 13:59:56;;;;;;;9.57;8.88;;;36.70;40.50;;;;;;4908104;28;92147;-83
2021/06/09 14:02:28;;;;;;;10.30;9.38;;;35.90;40.10;;;;;;4905853;28;92104;-83
2021/06/09 14:05:08;;;;;;;9.98;9.27;;;35.20;41.80;;;;;;4906003;28;92107;-84
2021/06/09 14:07:39;;;;;;;9.88;9.13;;;34.40;43.20;;;;;;4907011;28;91200;-84
2021/06/09 14:10:06;;;;;;;8.40;7.88;;;33.60;44.60;;;;;;4908187;28;93252;-85
2021/06/09 14:12:44;;;;;;;8.27;7.70;;;33.20;44.60;;;;;;4908145;28;92302;-85
2021/06/09 14:15:18;;;;;;;9.27;8.63;;;33.00;44.90;;;;;;4905636;28;93099;-84
2021/06/09 14:17:44;;;;;;;9.38;8.68;;;32.50;45.50;;;;;;4906176;28;92056;-85
2021/06/09 14:20:19;;;;;;;9.77;8.98;;;31.80;47.40;;;;;;4907025;28;92273;-83
2021/06/09 14:22:54;;;;;;;9.75;8.98;;;31.40;49.60;;;;;;4905909;28;92568;-84
2021/06/09 14:25:23;;;;;;;9.25;8.55;;;31.00;48.90;;;;;;4910319;28;92073;-85
2021/06/09 14:28:03;;;;;;;9.75;8.95;;;31.10;48.50;;;;;;4907136;28;92034;-83
2021/06/09 14:30:40;;;;;;;11.55;10.43;;;31.30;48.50;;;;;;4907993;28;91960;-85
2021/06/09 14:33:30;;;;;;;10.15;9.35;;;30.70;49.50;;;;;;4906080;28;92972;-83
2021/06/09 14:36:12;;;;;;;10.98;9.98;;;30.50;50.90;;;;;;4907187;28;91916;-85
2021/06/09 14:38:40;;;;;;;11.20;10.20;;;30.40;51.40;;;;;;4908389;28;91630;-84
2021/06/09 14:41:31;;;;;;;11.45;10.45;;;30.50;52.00;;;;;;4906690;28;93215;-85
2021/06/09 14:44:05;;;;;;;11.20;10.30;;;29.90;53.50;;;;;;4906699;28;92784;-85
2021/06/09 14:49:40;;;;;;;11.90;10.90;;;29.60;54.90;;;;;;4874373;28;92253;-85
2021/06/09 14:52:22;;;;;;;10.07;9.18;;;29.50;55.30;;;;;;4905361;28;92313;-84
2021/06/09 14:55:11;;;;;;;11.35;10.25;;;29.30;55.80;;;;;;4911963;28;92223;-83
2021/06/09 14:57:39;;;;;;;9.80;9.00;;;29.20;56.60;;;;;;4906977;28;92539;-86
2021/06/09 15:00:12;;;;;;;9.52;8.82;;;29.10;55.80;;;;;;4908381;28;91403;-84
2021/06/09 15:02:38;;;;;;;7.40;6.90;;;29.00;55.30;;;;;;4905349;28;92339;-84
2021/06/09 15:05:07;;;;;;;7.45;6.95;;;29.00;54.40;;;;;;4910154;28;92090;-84
2021/06/09 15:07:33;;;;;;;7.78;7.05;;;28.80;54.20;;;;;;4907188;28;92793;-83
2021/06/09 15:09:59;;;;;;;7.53;6.93;;;28.50;55.00;;;;;;4910526;28;91741;-82
2021/06/09 15:12:26;;;;;;;8.95;8.15;;;28.40;56.20;;;;;;4914751;28;92287;-83
2021/06/09 15:14:52;;;;;;;10.10;9.30;;;28.20;57.40;;;;;;4916904;28;91310;-84
2021/06/09 15:17:18;;;;;;;11.05;9.27;;;27.90;58.30;;;;;;4914399;28;91625;-83
2021/06/09 15:19:44;;;;;;;9.48;8.57;;;27.60;58.50;;;;;;4917395;28;92094;-85
2021/06/09 15:22:10;;;;;;;9.63;8.75;;;27.50;58.20;;;;;;4917997;28;92240;-84
2021/06/09 15:24:36;;;;;;;12.25;10.13;;;27.50;58.60;;;;;;4920834;28;92425;-83
2021/06/09 15:27:03;;;;;;;9.88;8.00;;;27.40;59.20;;;;;;4917009;28;92047;-83
2021/06/09 15:29:29;;;;;;;9.43;8.68;;;27.40;58.60;;;;;;4915235;28;91298;-82
2021/06/09 15:31:54;;;;;;;9.95;8.63;;;27.40;58.10;;;;;;4913058;28;93161;-83
2021/06/09 15:34:20;;;;;;;9.43;8.65;;;27.20;58.30;;;;;;4912739;28;93854;-83
2021/06/09 15:36:47;;;;;;;9.52;8.63;;;27.20;59.00;;;;;;4914195;28;91841;-85
2021/06/09 15:39:16;;;;;;;9.07;8.27;;;27.10;58.80;;;;;;4913003;28;91925;-84
2021/06/09 15:41:44;;;;;;;9.15;8.35;;;27.00;58.40;;;;;;4911570;28;92285;-85
2021/06/09 15:44:15;;;;;;;9.85;8.95;;;27.00;59.00;;;;;;4911878;28;91988;-85
2021/06/09 15:46:42;;;;;;;9.40;8.60;;;26.90;59.10;;;;;;4919830;28;91895;-84